createdAt,value
2023-05-18T00:02:21.642Z,7.97
2023-05-18T00:04:49.513Z,7.93
2023-05-18T00:07:17.329Z,7.88
2023-05-18T00:09:45.038Z,7.82
2023-05-18T00:12:12.875Z,7.80
2023-05-18T00:14:40.630Z,7.75
2023-05-18T00:17:08.378Z,7.76
2023-05-18T00:19:36.585Z,7.71
2023-05-18T00:22:07.866Z,7.69
2023-05-18T00:24:37.028Z,7.67
2023-05-18T00:27:05.184Z,7.68
2023-05-18T00:29:33.672Z,7.73
2023-05-18T00:32:01.596Z,7.73
2023-05-18T00:34:29.388Z,7.79
2023-05-18T00:36:57.145Z,7.79
2023-05-18T00:39:24.839Z,7.81
2023-05-18T00:41:52.667Z,7.78
2023-05-18T00:44:20.553Z,7.77
2023-05-18T00:46:48.298Z,7.72
2023-05-18T00:49:16.454Z,7.69
2023-05-18T00:51:45.655Z,7.64
2023-05-18T00:54:14.517Z,7.63
2023-05-18T00:56:42.482Z,7.61
2023-05-18T00:59:11.944Z,7.62
2023-05-18T01:01:44.037Z,7.60
2023-05-18T01:04:14.329Z,7.59
2023-05-18T01:06:42.839Z,7.60
2023-05-18T01:09:12.363Z,7.58
2023-05-18T01:12:15.597Z,7.60
2023-05-18T01:14:56.518Z,7.57
2023-05-18T01:18:00.851Z,7.55
2023-05-18T01:20:49.920Z,7.59
2023-05-18T01:23:41.652Z,7.55
2023-05-18T01:26:30.498Z,7.53
2023-05-18T01:29:04.596Z,7.50
2023-05-18T01:31:32.918Z,7.44
2023-05-18T01:34:02.740Z,7.37
2023-05-18T01:36:31.645Z,7.31
2023-05-18T01:39:01.926Z,7.31
2023-05-18T01:41:32.830Z,7.26
2023-05-18T01:44:15.880Z,7.24
2023-05-18T01:46:52.573Z,7.20
2023-05-18T01:49:36.633Z,7.10
2023-05-18T01:52:10.343Z,7.12
2023-05-18T01:54:43.651Z,7.15
2023-05-18T01:57:12.404Z,7.17
2023-05-18T01:59:41.881Z,7.17
2023-05-18T02:02:09.951Z,7.20
2023-05-18T02:04:37.842Z,7.15
2023-05-18T02:07:05.575Z,7.12
2023-05-18T02:09:33.365Z,7.05
2023-05-18T02:12:01.593Z,7.03
2023-05-18T02:14:29.395Z,7.04
2023-05-18T02:16:57.651Z,7.08
2023-05-18T02:19:25.763Z,7.06
2023-05-18T02:21:54.604Z,7.03
2023-05-18T02:24:23.372Z,6.99
2023-05-18T02:26:51.806Z,7.00
2023-05-18T02:29:20.842Z,6.97
2023-05-18T02:31:48.547Z,7.00
2023-05-18T02:34:17.140Z,7.01
2023-05-18T02:36:46.129Z,7.04
2023-05-18T02:39:13.888Z,7.02
2023-05-18T02:41:41.579Z,7.01
2023-05-18T02:44:09.298Z,6.97
2023-05-18T02:46:37.026Z,6.95
2023-05-18T02:49:07.271Z,6.94
2023-05-18T02:51:35.064Z,6.94
2023-05-18T02:54:04.071Z,6.89
2023-05-18T02:56:34.101Z,6.84
2023-05-18T02:59:13.018Z,6.75
2023-05-18T03:01:43.876Z,6.69
2023-05-18T03:04:11.880Z,6.66
2023-05-18T03:06:47.489Z,6.64
2023-05-18T03:09:16.631Z,6.69
2023-05-18T03:11:45.929Z,6.74
2023-05-18T03:14:14.077Z,6.75
2023-05-18T03:16:41.849Z,6.73
2023-05-18T03:19:16.272Z,6.71
2023-05-18T03:21:44.445Z,6.72
2023-05-18T03:24:15.002Z,6.72
2023-05-18T03:26:46.303Z,6.73
2023-05-18T03:29:14.096Z,6.73
2023-05-18T03:31:43.850Z,6.69
2023-05-18T03:34:13.029Z,6.67
2023-05-18T03:36:42.506Z,6.70
2023-05-18T03:39:11.258Z,6.73
2023-05-18T03:41:39.201Z,6.75
2023-05-18T03:44:06.896Z,6.76
2023-05-18T03:46:35.624Z,6.78
2023-05-18T03:49:05.098Z,6.77
2023-05-18T03:51:38.389Z,6.79
2023-05-18T03:54:06.236Z,6.83
2023-05-18T03:56:34.066Z,6.84
2023-05-18T03:59:04.276Z,6.84
2023-05-18T04:01:33.868Z,6.82
2023-05-18T04:04:01.816Z,6.79
2023-05-18T04:06:30.699Z,6.79
2023-05-18T04:09:02.692Z,6.84
2023-05-18T04:11:31.366Z,6.89
2023-05-18T04:14:01.082Z,6.86
2023-05-18T04:16:31.305Z,6.84
2023-05-18T04:19:00.513Z,6.83
2023-05-18T04:21:29.589Z,6.90
2023-05-18T04:23:59.722Z,6.95
2023-05-18T04:26:27.510Z,6.97
2023-05-18T04:29:00.371Z,6.98
2023-05-18T04:31:29.543Z,6.98
2023-05-18T04:33:58.466Z,7.10
2023-05-18T04:36:30.973Z,7.14
2023-05-18T04:38:58.866Z,7.28
2023-05-18T04:41:26.889Z,7.36
2023-05-18T04:43:54.745Z,7.43
2023-05-18T04:46:23.258Z,7.48
2023-05-18T04:48:53.159Z,7.54
2023-05-18T04:51:21.905Z,7.50
2023-05-18T04:53:53.222Z,7.61
2023-05-18T04:56:22.754Z,7.63
2023-05-18T04:58:50.894Z,7.67
2023-05-18T05:01:19.353Z,7.80
2023-05-18T05:03:47.238Z,7.84
2023-05-18T05:06:15.994Z,7.90
2023-05-18T05:08:44.036Z,8.02
2023-05-18T05:11:12.540Z,8.02
2023-05-18T05:13:40.289Z,8.07
2023-05-18T05:16:08.193Z,8.17
2023-05-18T05:18:35.934Z,8.30
2023-05-18T05:21:03.837Z,8.29
2023-05-18T05:23:32.027Z,8.28
2023-05-18T05:25:59.859Z,8.33
2023-05-18T05:28:28.534Z,8.41
2023-05-18T05:30:56.241Z,8.48
2023-05-18T05:33:24.006Z,8.53
2023-05-18T05:35:51.797Z,8.57
2023-05-18T05:38:19.992Z,8.62
2023-05-18T05:40:47.799Z,8.73
2023-05-18T05:43:15.663Z,8.78
2023-05-18T05:45:43.982Z,8.74
2023-05-18T05:48:13.897Z,8.72
2023-05-18T05:50:41.931Z,8.79
2023-05-18T05:53:09.754Z,8.81
2023-05-18T05:55:41.971Z,8.79
2023-05-18T05:58:14.036Z,8.73
2023-05-18T06:00:47.178Z,8.74
2023-05-18T06:03:15.752Z,8.87
2023-05-18T06:05:46.231Z,8.96
2023-05-18T06:08:16.992Z,8.93
2023-05-18T06:10:45.702Z,8.97
2023-05-18T06:13:14.154Z,9.12
2023-05-18T06:15:47.002Z,9.30
2023-05-18T06:18:15.673Z,9.38
2023-05-18T06:20:43.446Z,9.53
2023-05-18T06:23:11.397Z,9.59
2023-05-18T06:26:08.127Z,9.59
2023-05-18T06:28:50.485Z,9.51
2023-05-18T06:31:25.141Z,9.65
2023-05-18T06:34:00.906Z,9.55
2023-05-18T06:36:28.675Z,9.72
2023-05-18T06:38:57.968Z,9.83
2023-05-18T06:41:25.801Z,10.07
2023-05-18T06:43:53.686Z,9.97
2023-05-18T06:46:26.585Z,9.89
2023-05-18T06:48:58.503Z,9.85
2023-05-18T06:51:26.494Z,10.02
2023-05-18T06:53:56.392Z,10.10
2023-05-18T06:56:24.345Z,10.08
2023-05-18T06:58:53.002Z,10.23
2023-05-18T07:01:20.853Z,10.18
2023-05-18T07:03:48.744Z,10.26
2023-05-18T07:06:16.419Z,10.27
2023-05-18T07:08:45.702Z,10.34
2023-05-18T07:11:13.577Z,10.53
2023-05-18T07:13:42.774Z,10.75
2023-05-18T07:16:10.593Z,10.89
2023-05-18T07:18:39.036Z,11.04
2023-05-18T07:21:06.761Z,11.34
2023-05-18T07:23:34.749Z,11.37
2023-05-18T07:26:02.371Z,11.49
2023-05-18T07:28:30.184Z,11.62
2023-05-18T07:30:57.929Z,11.85
2023-05-18T07:33:25.827Z,11.89
2023-05-18T07:35:53.541Z,11.83
2023-05-18T07:38:21.558Z,12.01
2023-05-18T07:40:49.581Z,12.05
2023-05-18T07:43:17.375Z,12.22
2023-05-18T07:45:45.183Z,12.25
2023-05-18T07:48:12.963Z,12.45
2023-05-18T07:50:40.711Z,12.64
2023-05-18T07:53:08.569Z,12.83
2023-05-18T07:55:36.362Z,13.04
2023-05-18T07:58:04.247Z,13.25
2023-05-18T08:00:33.735Z,13.41
2023-05-18T08:03:01.570Z,13.58
2023-05-18T08:05:29.729Z,13.60
2023-05-18T08:07:57.651Z,13.52
2023-05-18T08:10:25.564Z,13.43
2023-05-18T08:12:53.436Z,13.22
2023-05-18T08:15:21.092Z,13.03
2023-05-18T08:17:48.939Z,13.20
2023-05-18T08:20:17.317Z,13.25
2023-05-18T08:22:45.073Z,13.22
2023-05-18T08:25:12.926Z,13.04
2023-05-18T08:27:40.758Z,13.27
2023-05-18T08:30:09.349Z,13.29
2023-05-18T08:32:37.587Z,13.54
2023-05-18T08:35:06.358Z,13.95
2023-05-18T08:37:38.309Z,14.40
2023-05-18T08:40:11.692Z,14.09
2023-05-18T08:43:08.028Z,13.50
2023-05-18T08:46:02.424Z,13.61
2023-05-18T08:48:34.040Z,13.70
2023-05-18T08:51:04.450Z,13.81
2023-05-18T08:53:36.377Z,13.42
2023-05-18T08:56:04.724Z,13.40
2023-05-18T08:58:44.459Z,13.57
2023-05-18T09:01:12.379Z,13.73
2023-05-18T09:03:40.929Z,13.76
2023-05-18T09:06:08.702Z,13.69
2023-05-18T09:08:36.481Z,13.81
2023-05-18T09:11:05.384Z,13.79
2023-05-18T09:13:33.059Z,13.25
2023-05-18T09:16:00.906Z,13.18
2023-05-18T09:18:28.793Z,13.08
2023-05-18T09:20:56.827Z,12.74
2023-05-18T09:23:24.686Z,12.74
2023-05-18T09:25:53.198Z,12.79
2023-05-18T09:28:40.653Z,13.00
2023-05-18T09:31:12.822Z,13.05
2023-05-18T09:33:43.829Z,13.20
2023-05-18T09:36:12.448Z,13.19
2023-05-18T09:38:47.244Z,13.13
2023-05-18T09:41:17.622Z,13.42
2023-05-18T09:43:48.657Z,13.86
2023-05-18T09:46:16.560Z,14.57
2023-05-18T09:48:51.240Z,15.03
2023-05-18T09:51:19.269Z,15.28
2023-05-18T09:53:56.113Z,15.14
2023-05-18T09:56:27.017Z,14.96
2023-05-18T09:58:55.425Z,15.08
2023-05-18T10:01:23.235Z,14.83
2023-05-18T10:03:51.116Z,14.91
2023-05-18T10:06:20.277Z,15.33
2023-05-18T10:08:48.587Z,15.95
2023-05-18T10:11:19.987Z,16.04
2023-05-18T10:13:47.783Z,15.98
2023-05-18T10:16:16.853Z,16.07
2023-05-18T10:18:46.139Z,16.06
2023-05-18T10:21:15.975Z,16.08
2023-05-18T10:23:47.678Z,15.80
2023-05-18T10:26:23.477Z,15.90
2023-05-18T10:28:52.761Z,15.70
2023-05-18T10:31:22.797Z,15.78
2023-05-18T10:33:52.689Z,15.69
2023-05-18T10:36:22.500Z,15.79
2023-05-18T10:38:50.578Z,16.30
2023-05-18T10:41:22.754Z,16.23
2023-05-18T10:43:51.399Z,16.34
2023-05-18T10:46:21.499Z,16.43
2023-05-18T10:48:54.284Z,16.31
2023-05-18T10:51:22.681Z,16.49
2023-05-18T10:53:50.829Z,16.36
2023-05-18T10:56:19.024Z,16.69
2023-05-18T10:58:47.866Z,16.97
2023-05-18T11:01:16.233Z,16.73
2023-05-18T11:03:44.008Z,16.81
2023-05-18T11:06:15.008Z,16.65
2023-05-18T11:08:52.048Z,16.46
2023-05-18T11:11:30.018Z,16.71
2023-05-18T11:14:02.846Z,17.01
2023-05-18T11:16:37.433Z,17.07
2023-05-18T11:19:12.825Z,17.39
2023-05-18T11:21:41.742Z,17.43
2023-05-18T11:24:20.092Z,17.19
2023-05-18T11:27:15.915Z,16.99
2023-05-18T11:29:45.265Z,16.73
2023-05-18T11:32:29.912Z,16.46
2023-05-18T11:34:59.817Z,16.53
2023-05-18T11:37:39.619Z,16.43
2023-05-18T11:40:12.187Z,16.57
2023-05-18T11:42:40.197Z,16.59
2023-05-18T11:45:13.023Z,16.42
2023-05-18T11:47:41.835Z,16.28
2023-05-18T11:50:12.199Z,16.42
2023-05-18T11:52:51.931Z,16.75
2023-05-18T11:55:21.416Z,16.69
2023-05-18T11:57:54.729Z,16.73
2023-05-18T12:00:25.112Z,16.51
2023-05-18T12:02:56.434Z,16.53
2023-05-18T12:05:24.303Z,17.11
2023-05-18T12:07:55.289Z,17.51
2023-05-18T12:10:24.192Z,17.73
2023-05-18T12:12:53.231Z,17.63
2023-05-18T12:15:25.112Z,17.27
2023-05-18T12:17:53.145Z,17.04
2023-05-18T12:20:25.223Z,17.57
2023-05-18T12:22:55.515Z,17.80
2023-05-18T12:25:25.786Z,17.86
2023-05-18T12:27:54.966Z,17.87
2023-05-18T12:30:25.947Z,18.40
2023-05-18T12:32:56.536Z,19.00
2023-05-18T12:35:29.781Z,18.91
2023-05-18T12:38:02.430Z,18.52
2023-05-18T12:40:44.794Z,17.92
2023-05-18T12:43:13.385Z,17.73
2023-05-18T12:45:44.442Z,17.75
2023-05-18T12:48:13.500Z,17.44
2023-05-18T12:50:49.285Z,17.32
2023-05-18T12:53:17.732Z,17.68
2023-05-18T12:55:45.626Z,17.76
2023-05-18T12:58:17.986Z,18.14
2023-05-18T13:00:48.185Z,18.35
2023-05-18T13:03:22.306Z,18.66
2023-05-18T13:06:05.720Z,18.45
2023-05-18T13:08:35.626Z,18.83
2023-05-18T13:11:13.371Z,18.85
2023-05-18T13:14:05.338Z,18.32
2023-05-18T13:16:41.407Z,18.56
2023-05-18T13:19:10.393Z,18.65
2023-05-18T13:21:39.194Z,18.09
2023-05-18T13:24:07.327Z,17.80
2023-05-18T13:26:35.082Z,17.77
2023-05-18T13:29:02.947Z,17.72
2023-05-18T13:31:30.828Z,17.36
2023-05-18T13:33:58.986Z,17.64
2023-05-18T13:36:29.631Z,18.18
2023-05-18T13:38:57.739Z,18.38
2023-05-18T13:41:26.330Z,18.25
2023-05-18T13:43:54.116Z,18.67
2023-05-18T13:46:22.031Z,18.99
2023-05-18T13:48:49.884Z,19.25
2023-05-18T13:51:17.623Z,19.86
2023-05-18T13:53:45.727Z,20.96
2023-05-18T13:56:13.461Z,21.12
2023-05-18T13:58:42.010Z,20.94
2023-05-18T14:01:13.388Z,21.29
2023-05-18T14:03:41.765Z,21.85
2023-05-18T14:06:09.642Z,21.15
2023-05-18T14:08:37.352Z,20.71
2023-05-18T14:11:05.277Z,20.29
2023-05-18T14:13:33.037Z,19.88
2023-05-18T14:16:00.784Z,20.84
2023-05-18T14:18:28.562Z,21.72
2023-05-18T14:21:00.728Z,20.82
2023-05-18T14:23:28.829Z,20.14
2023-05-18T14:25:56.533Z,20.03
2023-05-18T14:28:24.396Z,20.36
2023-05-18T14:30:52.199Z,19.58
2023-05-18T14:33:19.889Z,19.64
2023-05-18T14:35:47.617Z,19.76
2023-05-18T14:38:15.414Z,19.35
2023-05-18T14:40:43.094Z,18.99
2023-05-18T14:43:10.881Z,18.55
2023-05-18T14:45:38.607Z,18.50
2023-05-18T14:48:06.556Z,18.70
2023-05-18T14:50:37.312Z,18.91
2023-05-18T14:53:06.164Z,19.04
2023-05-18T14:55:33.920Z,18.68
2023-05-18T14:58:03.828Z,19.04
2023-05-18T15:00:32.035Z,19.13
2023-05-18T15:03:00.046Z,19.33
2023-05-18T15:05:27.979Z,19.94
2023-05-18T15:07:56.379Z,19.91
2023-05-18T15:10:24.295Z,20.12
2023-05-18T15:12:52.182Z,20.00
2023-05-18T15:15:19.962Z,18.56
2023-05-18T15:17:48.247Z,18.27
2023-05-18T15:20:16.007Z,18.82
2023-05-18T15:22:43.884Z,18.49
2023-05-18T15:25:11.626Z,17.97
2023-05-18T15:27:39.333Z,18.32
2023-05-18T15:30:11.506Z,18.16
2023-05-18T15:32:40.355Z,18.44
2023-05-18T15:35:08.741Z,18.49
2023-05-18T15:37:36.681Z,18.44
2023-05-18T15:40:05.687Z,18.47
2023-05-18T15:42:34.089Z,18.12
2023-05-18T15:45:03.167Z,17.94
2023-05-18T15:47:31.226Z,18.00
2023-05-18T15:49:58.977Z,18.10
2023-05-18T15:52:26.814Z,18.18
2023-05-18T15:54:54.706Z,18.22
2023-05-18T15:57:22.416Z,18.19
2023-05-18T15:59:50.329Z,18.16
2023-05-18T16:02:18.191Z,18.25
2023-05-18T16:04:45.879Z,17.94
2023-05-18T16:07:15.246Z,17.76
2023-05-18T16:09:42.969Z,17.37
2023-05-18T16:12:10.794Z,17.09
2023-05-18T16:14:38.540Z,16.81
2023-05-18T16:17:06.289Z,16.82
2023-05-18T16:19:34.113Z,16.55
2023-05-18T16:22:02.042Z,16.66
2023-05-18T16:24:29.769Z,16.60
2023-05-18T16:26:57.436Z,16.71
2023-05-18T16:29:25.223Z,16.83
2023-05-18T16:31:52.997Z,16.83
2023-05-18T16:34:20.724Z,16.39
2023-05-18T16:36:48.519Z,16.24
2023-05-18T16:39:16.312Z,16.06
2023-05-18T16:41:44.161Z,16.06
2023-05-18T16:44:12.024Z,15.85
2023-05-18T16:46:39.869Z,16.28
2023-05-18T16:49:07.709Z,16.24
2023-05-18T16:51:35.565Z,16.31
2023-05-18T16:54:03.455Z,16.52
2023-05-18T16:56:31.188Z,16.59
2023-05-18T16:58:58.902Z,16.42
2023-05-18T17:01:28.553Z,16.45
2023-05-18T17:03:57.471Z,16.31
2023-05-18T17:06:26.021Z,16.36
2023-05-18T17:08:57.930Z,16.21
2023-05-18T17:11:27.801Z,16.23
2023-05-18T17:13:57.631Z,16.11
2023-05-18T17:16:26.838Z,16.10
2023-05-18T17:18:56.118Z,16.02
2023-05-18T17:21:24.113Z,15.98
2023-05-18T17:23:51.779Z,15.94
2023-05-18T17:26:20.160Z,15.88
2023-05-18T17:28:47.890Z,15.90
2023-05-18T17:31:15.763Z,16.04
2023-05-18T17:33:47.160Z,16.15
2023-05-18T17:36:18.599Z,16.19
2023-05-18T17:38:47.116Z,16.51
2023-05-18T17:41:15.703Z,16.77
2023-05-18T17:43:43.473Z,17.00
2023-05-18T17:46:11.174Z,16.93
2023-05-18T17:48:39.168Z,16.73
2023-05-18T17:51:07.478Z,16.71
2023-05-18T17:53:35.171Z,16.58
2023-05-18T17:56:03.205Z,16.55
2023-05-18T17:58:30.837Z,16.30
2023-05-18T18:00:58.800Z,16.21
2023-05-18T18:03:26.595Z,16.20
2023-05-18T18:05:54.346Z,15.99
2023-05-18T18:08:22.132Z,15.78
2023-05-18T18:10:49.921Z,15.81
2023-05-18T18:13:17.869Z,15.86
2023-05-18T18:15:52.548Z,15.77
2023-05-18T18:18:24.085Z,15.72
2023-05-18T18:20:51.882Z,15.61
2023-05-18T18:23:19.606Z,15.47
2023-05-18T18:25:47.297Z,15.57
2023-05-18T18:28:15.377Z,15.45
2023-05-18T18:30:44.754Z,15.15
2023-05-18T18:33:14.248Z,15.18
2023-05-18T18:35:43.150Z,15.11
2023-05-18T18:38:12.982Z,15.05
2023-05-18T18:40:41.224Z,14.88
2023-05-18T18:43:09.171Z,14.83
2023-05-18T18:45:36.977Z,14.66
2023-05-18T18:48:05.203Z,14.41
2023-05-18T18:50:33.144Z,14.27
2023-05-18T18:53:01.083Z,14.24
2023-05-18T18:55:29.016Z,14.18
2023-05-18T18:57:59.529Z,14.13
2023-05-18T19:00:27.496Z,14.13
2023-05-18T19:02:55.310Z,14.02
2023-05-18T19:05:24.470Z,13.77
2023-05-18T19:07:55.680Z,13.75
2023-05-18T19:10:23.824Z,13.76
2023-05-18T19:12:51.555Z,13.62
2023-05-18T19:15:21.361Z,13.60
2023-05-18T19:17:53.806Z,13.66
2023-05-18T19:20:23.449Z,13.63
2023-05-18T19:22:53.463Z,13.54
2023-05-18T19:25:24.672Z,13.44
2023-05-18T19:27:53.815Z,13.40
2023-05-18T19:30:22.985Z,13.29
2023-05-18T19:32:52.767Z,13.24
2023-05-18T19:35:23.697Z,13.11
2023-05-18T19:37:51.782Z,12.97
2023-05-18T19:40:21.593Z,12.90
2023-05-18T19:42:49.521Z,12.80
2023-05-18T19:45:17.428Z,12.80
2023-05-18T19:47:45.350Z,12.72
2023-05-18T19:50:13.289Z,12.78
2023-05-18T19:52:41.308Z,12.73
2023-05-18T19:55:09.418Z,12.59
2023-05-18T19:57:37.261Z,12.62
2023-05-18T20:00:10.900Z,12.57
2023-05-18T20:02:41.575Z,12.50
2023-05-18T20:05:12.742Z,12.39
2023-05-18T20:07:41.077Z,12.35
2023-05-18T20:10:08.818Z,12.15
2023-05-18T20:12:36.601Z,12.25
2023-05-18T20:15:05.549Z,12.19
2023-05-18T20:17:33.442Z,12.04
2023-05-18T20:20:01.157Z,12.04
2023-05-18T20:22:28.892Z,11.99
2023-05-18T20:25:01.036Z,11.82
2023-05-18T20:27:28.837Z,11.91
2023-05-18T20:29:56.603Z,11.88
2023-05-18T20:32:24.376Z,11.83
2023-05-18T20:34:52.181Z,11.77
2023-05-18T20:37:19.954Z,11.76
2023-05-18T20:39:51.621Z,11.73
2023-05-18T20:42:22.017Z,11.58
2023-05-18T20:44:52.974Z,11.63
2023-05-18T20:47:21.035Z,11.53
2023-05-18T20:49:48.947Z,11.53
2023-05-18T20:52:16.769Z,11.49
2023-05-18T20:54:44.527Z,11.42
2023-05-18T20:57:12.316Z,11.41
2023-05-18T20:59:40.076Z,11.40
2023-05-18T21:02:07.823Z,11.40
2023-05-18T21:04:35.718Z,11.33
2023-05-18T21:07:05.553Z,11.30
2023-05-18T21:09:34.515Z,11.25
2023-05-18T21:12:02.686Z,11.25
2023-05-18T21:14:30.551Z,11.22
2023-05-18T21:16:58.249Z,11.18
2023-05-18T21:19:26.302Z,11.20
2023-05-18T21:21:54.263Z,11.16
2023-05-18T21:24:22.039Z,11.18
2023-05-18T21:26:49.902Z,11.11
2023-05-18T21:29:17.674Z,11.05
2023-05-18T21:31:45.747Z,11.01
2023-05-18T21:34:13.853Z,10.95
2023-05-18T21:36:41.832Z,10.94
2023-05-18T21:39:09.727Z,10.93
2023-05-18T21:41:40.289Z,10.94
2023-05-18T21:44:09.198Z,10.84
2023-05-18T21:46:37.660Z,10.82
2023-05-18T21:49:06.975Z,10.76
2023-05-18T21:51:34.957Z,10.74
2023-05-18T21:54:02.790Z,10.71
2023-05-18T21:56:30.894Z,10.71
2023-05-18T21:58:58.966Z,10.65
2023-05-18T22:01:26.719Z,10.63
2023-05-18T22:03:54.606Z,10.60
2023-05-18T22:06:22.965Z,10.59
2023-05-18T22:08:51.448Z,10.53
2023-05-18T22:11:19.151Z,10.54
2023-05-18T22:13:46.871Z,10.49
2023-05-18T22:16:14.654Z,10.40
2023-05-18T22:18:42.472Z,10.41
2023-05-18T22:21:10.244Z,10.32
2023-05-18T22:23:39.229Z,10.37
2023-05-18T22:26:07.175Z,10.28
2023-05-18T22:28:35.120Z,10.27
2023-05-18T22:31:02.898Z,10.21
2023-05-18T22:33:30.651Z,10.09
2023-05-18T22:35:58.473Z,10.10
2023-05-18T22:38:26.784Z,9.90
2023-05-18T22:40:54.572Z,9.89
2023-05-18T22:43:22.561Z,9.73
2023-05-18T22:45:50.493Z,9.70
2023-05-18T22:48:18.211Z,9.77
2023-05-18T22:50:46.047Z,9.77
2023-05-18T22:53:13.954Z,9.73
2023-05-18T22:55:44.766Z,9.60
2023-05-18T22:58:12.595Z,9.55
2023-05-18T23:00:40.397Z,9.56
2023-05-18T23:03:08.255Z,9.51
2023-05-18T23:05:36.964Z,9.47
2023-05-18T23:08:05.094Z,9.48
2023-05-18T23:10:33.480Z,9.46
2023-05-18T23:13:02.183Z,9.45
2023-05-18T23:15:30.387Z,9.28
2023-05-18T23:17:58.124Z,9.26
2023-05-18T23:20:25.916Z,9.18
2023-05-18T23:22:53.828Z,9.19
2023-05-18T23:25:21.589Z,9.16
2023-05-18T23:27:49.252Z,9.08
2023-05-18T23:30:17.128Z,9.14
2023-05-18T23:32:46.888Z,9.09
2023-05-18T23:35:15.830Z,9.08
2023-05-18T23:37:43.917Z,9.05
2023-05-18T23:40:12.673Z,9.07
2023-05-18T23:42:40.836Z,9.04
2023-05-18T23:45:09.850Z,8.93
2023-05-18T23:47:38.157Z,8.99
2023-05-18T23:50:07.259Z,8.72
2023-05-18T23:52:35.634Z,8.77
2023-05-18T23:55:04.290Z,8.86
2023-05-18T23:57:33.144Z,8.76
